sensor_id;sensor_type;location;lat;lon;timestamp;P1;durP1;ratioP1;P2;durP2;ratioP2
64063;SDS011;50314;50.618;10.642;2023-03-23T00:01:55;1.80;;;1.50;;
64063;SDS011;50314;50.618;10.642;2023-03-23T00:04:20;1.70;;;1.45;;
64063;SDS011;50314;50.618;10.642;2023-03-23T00:06:46;2.15;;;1.40;;
64063;SDS011;50314;50.618;10.642;2023-03-23T00:09:13;1.63;;;1.30;;
64063;SDS011;50314;50.618;10.642;2023-03-23T00:11:40;1.92;;;1.50;;
64063;SDS011;50314;50.618;10.642;2023-03-23T00:14:06;1.98;;;1.50;;
64063;SDS011;50314;50.618;10.642;2023-03-23T00:16:38;1.98;;;1.60;;
64063;SDS011;50314;50.618;10.642;2023-03-23T00:19:07;1.98;;;1.52;;
64063;SDS011;50314;50.618;10.642;2023-03-23T00:21:37;2.15;;;1.45;;
64063;SDS011;50314;50.618;10.642;2023-03-23T00:26:37;2.47;;;1.40;;
64063;SDS011;50314;50.618;10.642;2023-03-23T00:29:29;1.60;;;1.50;;
64063;SDS011;50314;50.618;10.642;2023-03-23T00:31:53;2.15;;;1.42;;
64063;SDS011;50314;50.618;10.642;2023-03-23T00:34:21;2.20;;;1.70;;
64063;SDS011;50314;50.618;10.642;2023-03-23T00:36:52;1.40;;;1.30;;
64063;SDS011;50314;50.618;10.642;2023-03-23T00:39:22;1.75;;;1.50;;
64063;SDS011;50314;50.618;10.642;2023-03-23T00:41:50;1.98;;;1.63;;
64063;SDS011;50314;50.618;10.642;2023-03-23T00:44:16;1.80;;;1.45;;
64063;SDS011;50314;50.618;10.642;2023-03-23T00:46:42;1.60;;;1.30;;
64063;SDS011;50314;50.618;10.642;2023-03-23T00:49:10;1.55;;;1.23;;
64063;SDS011;50314;50.618;10.642;2023-03-23T00:51:39;1.70;;;1.40;;
64063;SDS011;50314;50.618;10.642;2023-03-23T00:54:06;1.95;;;1.45;;
64063;SDS011;50314;50.618;10.642;2023-03-23T00:56:32;1.60;;;1.50;;
64063;SDS011;50314;50.618;10.642;2023-03-23T00:58:58;1.80;;;1.50;;
64063;SDS011;50314;50.618;10.642;2023-03-23T01:01:23;1.65;;;1.25;;
64063;SDS011;50314;50.618;10.642;2023-03-23T01:03:49;1.90;;;1.50;;
64063;SDS011;50314;50.618;10.642;2023-03-23T01:06:14;2.10;;;1.52;;
64063;SDS011;50314;50.618;10.642;2023-03-23T01:08:40;1.55;;;1.30;;
64063;SDS011;50314;50.618;10.642;2023-03-23T01:11:12;1.73;;;1.50;;
64063;SDS011;50314;50.618;10.642;2023-03-23T01:13:39;2.20;;;1.55;;
64063;SDS011;50314;50.618;10.642;2023-03-23T01:16:06;1.90;;;1.48;;
64063;SDS011;50314;50.618;10.642;2023-03-23T01:18:32;1.58;;;1.27;;
64063;SDS011;50314;50.618;10.642;2023-03-23T01:20:57;2.10;;;1.67;;
64063;SDS011;50314;50.618;10.642;2023-03-23T01:23:28;1.52;;;1.42;;
64063;SDS011;50314;50.618;10.642;2023-03-23T01:25:53;2.03;;;1.50;;
64063;SDS011;50314;50.618;10.642;2023-03-23T01:28:22;2.10;;;1.50;;
64063;SDS011;50314;50.618;10.642;2023-03-23T01:30:47;1.75;;;1.30;;
64063;SDS011;50314;50.618;10.642;2023-03-23T01:33:13;1.92;;;1.33;;
64063;SDS011;50314;50.618;10.642;2023-03-23T01:35:38;1.77;;;1.55;;
64063;SDS011;50314;50.618;10.642;2023-03-23T01:38:04;2.08;;;1.50;;
64063;SDS011;50314;50.618;10.642;2023-03-23T01:40:29;1.52;;;1.30;;
64063;SDS011;50314;50.618;10.642;2023-03-23T01:42:55;1.58;;;1.35;;
64063;SDS011;50314;50.618;10.642;2023-03-23T01:47:59;1.23;;;1.13;;
64063;SDS011;50314;50.618;10.642;2023-03-23T01:50:29;1.40;;;1.15;;
64063;SDS011;50314;50.618;10.642;2023-03-23T01:53:00;2.28;;;1.60;;
64063;SDS011;50314;50.618;10.642;2023-03-23T01:55:27;1.60;;;1.30;;
64063;SDS011;50314;50.618;10.642;2023-03-23T01:57:53;1.75;;;1.50;;
64063;SDS011;50314;50.618;10.642;2023-03-23T02:00:21;2.08;;;1.50;;
64063;SDS011;50314;50.618;10.642;2023-03-23T02:02:47;1.55;;;1.30;;
64063;SDS011;50314;50.618;10.642;2023-03-23T02:05:19;1.77;;;1.17;;
64063;SDS011;50314;50.618;10.642;2023-03-23T02:07:58;2.10;;;1.33;;
64063;SDS011;50314;50.618;10.642;2023-03-23T02:10:28;1.33;;;1.20;;
64063;SDS011;50314;50.618;10.642;2023-03-23T02:12:57;1.40;;;1.30;;
64063;SDS011;50314;50.618;10.642;2023-03-23T02:15:25;1.60;;;1.20;;
64063;SDS011;50314;50.618;10.642;2023-03-23T02:18:00;1.48;;;1.05;;
64063;SDS011;50314;50.618;10.642;2023-03-23T02:20:55;1.58;;;1.20;;
64063;SDS011;50314;50.618;10.642;2023-03-23T02:34:12;1.38;;;1.20;;
64063;SDS011;50314;50.618;10.642;2023-03-23T02:36:44;1.40;;;1.20;;
64063;SDS011;50314;50.618;10.642;2023-03-23T02:39:37;1.20;;;1.10;;
64063;SDS011;50314;50.618;10.642;2023-03-23T02:42:10;1.30;;;1.20;;
64063;SDS011;50314;50.618;10.642;2023-03-23T02:44:40;1.20;;;1.10;;
64063;SDS011;50314;50.618;10.642;2023-03-23T02:47:11;1.30;;;1.20;;
64063;SDS011;50314;50.618;10.642;2023-03-23T02:49:42;1.77;;;1.30;;
64063;SDS011;50314;50.618;10.642;2023-03-23T02:52:12;1.35;;;1.10;;
64063;SDS011;50314;50.618;10.642;2023-03-23T02:54:44;1.75;;;1.13;;
64063;SDS011;50314;50.618;10.642;2023-03-23T02:57:11;1.77;;;1.30;;
64063;SDS011;50314;50.618;10.642;2023-03-23T02:59:37;1.83;;;1.38;;
64063;SDS011;50314;50.618;10.642;2023-03-23T03:02:05;1.77;;;1.30;;
64063;SDS011;50314;50.618;10.642;2023-03-23T03:04:35;1.10;;;1.00;;
64063;SDS011;50314;50.618;10.642;2023-03-23T03:09:48;1.38;;;1.08;;
64063;SDS011;50314;50.618;10.642;2023-03-23T03:12:30;1.33;;;1.05;;
64063;SDS011;50314;50.618;10.642;2023-03-23T03:15:06;1.30;;;1.10;;
64063;SDS011;50314;50.618;10.642;2023-03-23T03:17:47;2.33;;;1.35;;
64063;SDS011;50314;50.618;10.642;2023-03-23T03:20:20;1.48;;;1.00;;
64063;SDS011;50314;50.618;10.642;2023-03-23T03:22:50;1.55;;;1.20;;
64063;SDS011;50314;50.618;10.642;2023-03-23T03:25:17;1.38;;;1.25;;
64063;SDS011;50314;50.618;10.642;2023-03-23T03:27:45;1.13;;;0.90;;
64063;SDS011;50314;50.618;10.642;2023-03-23T03:30:14;1.80;;;1.00;;
64063;SDS011;50314;50.618;10.642;2023-03-23T03:32:46;1.20;;;1.10;;
64063;SDS011;50314;50.618;10.642;2023-03-23T03:35:15;1.20;;;1.10;;
64063;SDS011;50314;50.618;10.642;2023-03-23T03:37:42;1.45;;;1.13;;
64063;SDS011;50314;50.618;10.642;2023-03-23T03:40:09;1.20;;;1.08;;
64063;SDS011;50314;50.618;10.642;2023-03-23T03:42:38;1.55;;;1.40;;
64063;SDS011;50314;50.618;10.642;2023-03-23T03:45:06;1.45;;;1.10;;
64063;SDS011;50314;50.618;10.642;2023-03-23T03:47:36;1.45;;;1.02;;
64063;SDS011;50314;50.618;10.642;2023-03-23T03:50:02;1.50;;;1.10;;
64063;SDS011;50314;50.618;10.642;2023-03-23T03:52:28;1.00;;;0.90;;
64063;SDS011;50314;50.618;10.642;2023-03-23T03:54:54;1.50;;;1.10;;
64063;SDS011;50314;50.618;10.642;2023-03-23T03:57:20;2.03;;;1.10;;
64063;SDS011;50314;50.618;10.642;2023-03-23T03:59:46;1.30;;;1.20;;
64063;SDS011;50314;50.618;10.642;2023-03-23T04:02:12;1.00;;;0.90;;
64063;SDS011;50314;50.618;10.642;2023-03-23T04:04:45;1.15;;;1.05;;
64063;SDS011;50314;50.618;10.642;2023-03-23T04:07:14;1.02;;;0.93;;
64063;SDS011;50314;50.618;10.642;2023-03-23T04:09:41;1.58;;;1.40;;
64063;SDS011;50314;50.618;10.642;2023-03-23T04:12:13;2.38;;;1.20;;
64063;SDS011;50314;50.618;10.642;2023-03-23T04:14:39;1.20;;;1.00;;
64063;SDS011;50314;50.618;10.642;2023-03-23T04:17:05;1.40;;;1.30;;
64063;SDS011;50314;50.618;10.642;2023-03-23T04:19:32;1.13;;;1.00;;
64063;SDS011;50314;50.618;10.642;2023-03-23T04:21:58;1.35;;;1.15;;
64063;SDS011;50314;50.618;10.642;2023-03-23T04:24:24;1.02;;;0.95;;
64063;SDS011;50314;50.618;10.642;2023-03-23T04:26:53;1.40;;;1.02;;
64063;SDS011;50314;50.618;10.642;2023-03-23T04:29:19;1.17;;;0.88;;
64063;SDS011;50314;50.618;10.642;2023-03-23T04:31:44;1.02;;;0.93;;
64063;SDS011;50314;50.618;10.642;2023-03-23T04:34:10;1.45;;;1.35;;
64063;SDS011;50314;50.618;10.642;2023-03-23T04:36:39;1.55;;;1.13;;
64063;SDS011;50314;50.618;10.642;2023-03-23T04:39:06;1.17;;;1.00;;
64063;SDS011;50314;50.618;10.642;2023-03-23T04:41:34;0.95;;;0.85;;
64063;SDS011;50314;50.618;10.642;2023-03-23T04:44:04;0.88;;;0.80;;
64063;SDS011;50314;50.618;10.642;2023-03-23T04:46:30;1.38;;;1.10;;
64063;SDS011;50314;50.618;10.642;2023-03-23T04:48:56;1.00;;;0.90;;
64063;SDS011;50314;50.618;10.642;2023-03-23T04:51:26;1.08;;;0.85;;
64063;SDS011;50314;50.618;10.642;2023-03-23T04:53:53;1.27;;;1.00;;
64063;SDS011;50314;50.618;10.642;2023-03-23T04:56:19;1.33;;;0.90;;
64063;SDS011;50314;50.618;10.642;2023-03-23T04:58:44;1.20;;;1.00;;
64063;SDS011;50314;50.618;10.642;2023-03-23T05:01:11;1.13;;;0.90;;
64063;SDS011;50314;50.618;10.642;2023-03-23T05:03:40;0.93;;;0.80;;
64063;SDS011;50314;50.618;10.642;2023-03-23T05:06:06;0.88;;;0.88;;
64063;SDS011;50314;50.618;10.642;2023-03-23T05:08:32;1.13;;;0.98;;
64063;SDS011;50314;50.618;10.642;2023-03-23T05:10:58;1.17;;;0.93;;
64063;SDS011;50314;50.618;10.642;2023-03-23T05:13:25;1.20;;;1.10;;
64063;SDS011;50314;50.618;10.642;2023-03-23T05:15:50;1.23;;;1.05;;
64063;SDS011;50314;50.618;10.642;2023-03-23T05:18:16;1.35;;;1.02;;
64063;SDS011;50314;50.618;10.642;2023-03-23T05:20:42;0.93;;;0.93;;
64063;SDS011;50314;50.618;10.642;2023-03-23T05:23:08;1.63;;;0.90;;
64063;SDS011;50314;50.618;10.642;2023-03-23T05:25:35;1.13;;;0.90;;
64063;SDS011;50314;50.618;10.642;2023-03-23T05:28:01;1.52;;;1.23;;
64063;SDS011;50314;50.618;10.642;2023-03-23T05:30:27;1.38;;;1.00;;
64063;SDS011;50314;50.618;10.642;2023-03-23T05:32:53;1.40;;;1.13;;
64063;SDS011;50314;50.618;10.642;2023-03-23T05:35:18;1.30;;;1.20;;
64063;SDS011;50314;50.618;10.642;2023-03-23T05:37:45;0.80;;;0.80;;
64063;SDS011;50314;50.618;10.642;2023-03-23T05:40:11;0.90;;;0.90;;
64063;SDS011;50314;50.618;10.642;2023-03-23T05:42:37;0.90;;;0.90;;
64063;SDS011;50314;50.618;10.642;2023-03-23T05:45:05;1.05;;;0.95;;
64063;SDS011;50314;50.618;10.642;2023-03-23T05:47:31;1.00;;;0.90;;
64063;SDS011;50314;50.618;10.642;2023-03-23T05:49:57;1.15;;;1.05;;
64063;SDS011;50314;50.618;10.642;2023-03-23T05:52:23;0.80;;;0.80;;
64063;SDS011;50314;50.618;10.642;2023-03-23T05:54:51;1.00;;;0.85;;
64063;SDS011;50314;50.618;10.642;2023-03-23T05:57:17;1.02;;;0.90;;
64063;SDS011;50314;50.618;10.642;2023-03-23T05:59:43;2.38;;;1.13;;
64063;SDS011;50314;50.618;10.642;2023-03-23T06:02:10;1.13;;;1.02;;
64063;SDS011;50314;50.618;10.642;2023-03-23T06:04:36;1.00;;;1.00;;
64063;SDS011;50314;50.618;10.642;2023-03-23T06:07:03;1.20;;;1.10;;
64063;SDS011;50314;50.618;10.642;2023-03-23T06:09:29;0.90;;;0.90;;
64063;SDS011;50314;50.618;10.642;2023-03-23T06:11:55;1.08;;;0.90;;
64063;SDS011;50314;50.618;10.642;2023-03-23T06:14:21;1.27;;;1.17;;
64063;SDS011;50314;50.618;10.642;2023-03-23T06:16:47;1.20;;;1.10;;
64063;SDS011;50314;50.618;10.642;2023-03-23T06:19:13;0.90;;;0.80;;
64063;SDS011;50314;50.618;10.642;2023-03-23T06:21:40;1.20;;;1.10;;
64063;SDS011;50314;50.618;10.642;2023-03-23T06:24:06;0.85;;;0.80;;
64063;SDS011;50314;50.618;10.642;2023-03-23T06:26:36;0.80;;;0.80;;
64063;SDS011;50314;50.618;10.642;2023-03-23T06:29:04;1.02;;;0.93;;
64063;SDS011;50314;50.618;10.642;2023-03-23T06:31:36;1.00;;;0.90;;
64063;SDS011;50314;50.618;10.642;2023-03-23T06:34:08;0.93;;;0.85;;
64063;SDS011;50314;50.618;10.642;2023-03-23T06:36:35;0.90;;;0.85;;
64063;SDS011;50314;50.618;10.642;2023-03-23T06:39:01;1.10;;;1.00;;
64063;SDS011;50314;50.618;10.642;2023-03-23T06:41:29;1.02;;;0.93;;
64063;SDS011;50314;50.618;10.642;2023-03-23T06:43:55;1.08;;;0.98;;
64063;SDS011;50314;50.618;10.642;2023-03-23T06:46:20;1.30;;;0.85;;
64063;SDS011;50314;50.618;10.642;2023-03-23T06:48:46;0.90;;;0.90;;
64063;SDS011;50314;50.618;10.642;2023-03-23T06:51:14;0.70;;;0.70;;
64063;SDS011;50314;50.618;10.642;2023-03-23T06:53:40;1.08;;;0.85;;
64063;SDS011;50314;50.618;10.642;2023-03-23T06:56:05;1.40;;;1.00;;
64063;SDS011;50314;50.618;10.642;2023-03-23T06:58:32;1.33;;;0.90;;
64063;SDS011;50314;50.618;10.642;2023-03-23T07:00:57;0.90;;;0.90;;
64063;SDS011;50314;50.618;10.642;2023-03-23T07:03:23;1.90;;;1.20;;
64063;SDS011;50314;50.618;10.642;2023-03-23T07:05:49;1.60;;;1.00;;
64063;SDS011;50314;50.618;10.642;2023-03-23T07:08:15;1.80;;;1.20;;
64063;SDS011;50314;50.618;10.642;2023-03-23T07:10:41;1.58;;;0.95;;
64063;SDS011;50314;50.618;10.642;2023-03-23T07:13:06;0.82;;;0.82;;
64063;SDS011;50314;50.618;10.642;2023-03-23T07:15:32;1.30;;;0.88;;
64063;SDS011;50314;50.618;10.642;2023-03-23T07:17:57;0.85;;;0.70;;
64063;SDS011;50314;50.618;10.642;2023-03-23T07:20:23;1.25;;;0.98;;
64063;SDS011;50314;50.618;10.642;2023-03-23T07:22:48;1.20;;;0.80;;
64063;SDS011;50314;50.618;10.642;2023-03-23T07:25:15;0.85;;;0.70;;
64063;SDS011;50314;50.618;10.642;2023-03-23T07:27:41;2.17;;;1.10;;
64063;SDS011;50314;50.618;10.642;2023-03-23T07:30:06;1.63;;;0.85;;
64063;SDS011;50314;50.618;10.642;2023-03-23T07:32:32;0.93;;;0.80;;
64063;SDS011;50314;50.618;10.642;2023-03-23T07:34:58;0.70;;;0.70;;
64063;SDS011;50314;50.618;10.642;2023-03-23T07:37:23;1.55;;;1.15;;
64063;SDS011;50314;50.618;10.642;2023-03-23T07:39:49;1.45;;;1.00;;
64063;SDS011;50314;50.618;10.642;2023-03-23T07:42:15;1.50;;;1.05;;
64063;SDS011;50314;50.618;10.642;2023-03-23T07:44:40;1.52;;;1.00;;
64063;SDS011;50314;50.618;10.642;2023-03-23T07:47:06;2.17;;;0.82;;
64063;SDS011;50314;50.618;10.642;2023-03-23T07:49:32;1.10;;;1.00;;
64063;SDS011;50314;50.618;10.642;2023-03-23T07:51:57;1.48;;;1.30;;
64063;SDS011;50314;50.618;10.642;2023-03-23T07:54:23;1.40;;;0.80;;
64063;SDS011;50314;50.618;10.642;2023-03-23T07:56:49;2.17;;;1.10;;
64063;SDS011;50314;50.618;10.642;2023-03-23T07:59:15;1.45;;;1.08;;
64063;SDS011;50314;50.618;10.642;2023-03-23T08:01:41;1.45;;;0.98;;
64063;SDS011;50314;50.618;10.642;2023-03-23T08:04:06;2.00;;;1.08;;
64063;SDS011;50314;50.618;10.642;2023-03-23T08:06:33;1.70;;;1.25;;
64063;SDS011;50314;50.618;10.642;2023-03-23T08:08:59;1.85;;;1.08;;
64063;SDS011;50314;50.618;10.642;2023-03-23T08:11:25;1.85;;;1.15;;
64063;SDS011;50314;50.618;10.642;2023-03-23T08:13:51;1.20;;;1.10;;
64063;SDS011;50314;50.618;10.642;2023-03-23T08:16:18;1.88;;;1.10;;
64063;SDS011;50314;50.618;10.642;2023-03-23T08:18:45;1.45;;;0.90;;
64063;SDS011;50314;50.618;10.642;2023-03-23T08:21:11;3.00;;;0.80;;
64063;SDS011;50314;50.618;10.642;2023-03-23T08:23:38;1.10;;;0.82;;
64063;SDS011;50314;50.618;10.642;2023-03-23T08:26:04;1.10;;;1.00;;
64063;SDS011;50314;50.618;10.642;2023-03-23T08:28:32;1.30;;;1.00;;
64063;SDS011;50314;50.618;10.642;2023-03-23T08:31:07;1.38;;;1.20;;
64063;SDS011;50314;50.618;10.642;2023-03-23T08:33:35;1.10;;;0.80;;
64063;SDS011;50314;50.618;10.642;2023-03-23T08:36:01;1.65;;;1.30;;
64063;SDS011;50314;50.618;10.642;2023-03-23T08:38:28;1.95;;;0.90;;
64063;SDS011;50314;50.618;10.642;2023-03-23T08:41:00;1.40;;;0.90;;
64063;SDS011;50314;50.618;10.642;2023-03-23T08:43:27;1.13;;;0.90;;
64063;SDS011;50314;50.618;10.642;2023-03-23T08:45:53;1.80;;;0.85;;
64063;SDS011;50314;50.618;10.642;2023-03-23T08:48:19;1.58;;;0.98;;
64063;SDS011;50314;50.618;10.642;2023-03-23T08:50:46;1.00;;;0.90;;
64063;SDS011;50314;50.618;10.642;2023-03-23T08:53:12;1.20;;;0.90;;
64063;SDS011;50314;50.618;10.642;2023-03-23T08:55:37;1.25;;;0.90;;
64063;SDS011;50314;50.618;10.642;2023-03-23T08:58:04;1.10;;;1.00;;
64063;SDS011;50314;50.618;10.642;2023-03-23T09:00:30;2.60;;;1.00;;
64063;SDS011;50314;50.618;10.642;2023-03-23T09:02:56;2.17;;;1.13;;
64063;SDS011;50314;50.618;10.642;2023-03-23T09:05:23;2.40;;;0.90;;
64063;SDS011;50314;50.618;10.642;2023-03-23T09:07:50;0.90;;;0.80;;
64063;SDS011;50314;50.618;10.642;2023-03-23T09:10:17;1.10;;;0.98;;
64063;SDS011;50314;50.618;10.642;2023-03-23T09:12:43;0.80;;;0.80;;
64063;SDS011;50314;50.618;10.642;2023-03-23T09:15:10;1.63;;;1.00;;
64063;SDS011;50314;50.618;10.642;2023-03-23T09:17:40;0.80;;;0.80;;
64063;SDS011;50314;50.618;10.642;2023-03-23T09:20:08;1.00;;;0.80;;
64063;SDS011;50314;50.618;10.642;2023-03-23T09:22:38;0.80;;;0.80;;
64063;SDS011;50314;50.618;10.642;2023-03-23T09:25:05;1.33;;;1.00;;
64063;SDS011;50314;50.618;10.642;2023-03-23T09:27:33;1.13;;;0.90;;
64063;SDS011;50314;50.618;10.642;2023-03-23T09:30:01;0.82;;;0.70;;
64063;SDS011;50314;50.618;10.642;2023-03-23T09:32:32;0.70;;;0.70;;
64063;SDS011;50314;50.618;10.642;2023-03-23T09:35:00;1.40;;;1.00;;
64063;SDS011;50314;50.618;10.642;2023-03-23T09:37:26;0.90;;;0.80;;
64063;SDS011;50314;50.618;10.642;2023-03-23T09:39:51;1.65;;;0.90;;
64063;SDS011;50314;50.618;10.642;2023-03-23T09:50:32;1.30;;;0.80;;
64063;SDS011;50314;50.618;10.642;2023-03-23T09:55:30;1.90;;;1.25;;
64063;SDS011;50314;50.618;10.642;2023-03-23T09:57:59;1.65;;;1.00;;
64063;SDS011;50314;50.618;10.642;2023-03-23T10:03:16;0.88;;;0.77;;
64063;SDS011;50314;50.618;10.642;2023-03-23T10:05:45;0.77;;;0.77;;
64063;SDS011;50314;50.618;10.642;2023-03-23T10:08:14;0.85;;;0.80;;
64063;SDS011;50314;50.618;10.642;2023-03-23T10:15:57;0.93;;;0.68;;
64063;SDS011;50314;50.618;10.642;2023-03-23T10:20:58;1.38;;;0.98;;
64063;SDS011;50314;50.618;10.642;2023-03-23T10:28:46;1.20;;;0.98;;
64063;SDS011;50314;50.618;10.642;2023-03-23T10:31:39;1.00;;;0.88;;
64063;SDS011;50314;50.618;10.642;2023-03-23T10:34:17;1.27;;;1.00;;
64063;SDS011;50314;50.618;10.642;2023-03-23T10:39:52;0.88;;;0.80;;
64063;SDS011;50314;50.618;10.642;2023-03-23T10:42:33;1.55;;;1.10;;
64063;SDS011;50314;50.618;10.642;2023-03-23T10:45:10;1.00;;;0.80;;
64063;SDS011;50314;50.618;10.642;2023-03-23T10:47:58;1.13;;;0.95;;
64063;SDS011;50314;50.618;10.642;2023-03-23T10:50:31;0.80;;;0.75;;
64063;SDS011;50314;50.618;10.642;2023-03-23T10:52:59;1.17;;;0.90;;
64063;SDS011;50314;50.618;10.642;2023-03-23T10:55:37;1.42;;;1.00;;
64063;SDS011;50314;50.618;10.642;2023-03-23T10:58:06;3.53;;;1.17;;
64063;SDS011;50314;50.618;10.642;2023-03-23T11:00:39;1.00;;;0.80;;
64063;SDS011;50314;50.618;10.642;2023-03-23T11:05:43;1.17;;;0.82;;
64063;SDS011;50314;50.618;10.642;2023-03-23T11:08:16;0.95;;;0.90;;
64063;SDS011;50314;50.618;10.642;2023-03-23T11:10:49;0.75;;;0.75;;
64063;SDS011;50314;50.618;10.642;2023-03-23T11:13:15;1.35;;;1.00;;
64063;SDS011;50314;50.618;10.642;2023-03-23T11:15:43;1.88;;;1.10;;
64063;SDS011;50314;50.618;10.642;2023-03-23T11:18:12;1.58;;;1.05;;
64063;SDS011;50314;50.618;10.642;2023-03-23T11:20:43;1.55;;;1.10;;
64063;SDS011;50314;50.618;10.642;2023-03-23T11:25:51;1.20;;;0.90;;
64063;SDS011;50314;50.618;10.642;2023-03-23T11:29:01;1.40;;;0.88;;
64063;SDS011;50314;50.618;10.642;2023-03-23T11:31:39;1.27;;;1.00;;
64063;SDS011;50314;50.618;10.642;2023-03-23T11:34:10;0.80;;;0.80;;
64063;SDS011;50314;50.618;10.642;2023-03-23T11:36:41;1.95;;;1.40;;
64063;SDS011;50314;50.618;10.642;2023-03-23T11:42:00;1.98;;;1.10;;
64063;SDS011;50314;50.618;10.642;2023-03-23T11:44:40;1.85;;;1.00;;
64063;SDS011;50314;50.618;10.642;2023-03-23T11:47:15;2.35;;;1.40;;
64063;SDS011;50314;50.618;10.642;2023-03-23T11:49:57;1.88;;;1.10;;
64063;SDS011;50314;50.618;10.642;2023-03-23T11:52:33;1.90;;;1.10;;
64063;SDS011;50314;50.618;10.642;2023-03-23T11:58:12;2.22;;;1.25;;
64063;SDS011;50314;50.618;10.642;2023-03-23T12:00:49;2.25;;;1.13;;
64063;SDS011;50314;50.618;10.642;2023-03-23T12:06:26;1.63;;;1.20;;
64063;SDS011;50314;50.618;10.642;2023-03-23T12:17:32;1.92;;;1.10;;
64063;SDS011;50314;50.618;10.642;2023-03-23T12:20:23;3.90;;;1.05;;
64063;SDS011;50314;50.618;10.642;2023-03-23T12:28:50;1.30;;;1.00;;
64063;SDS011;50314;50.618;10.642;2023-03-23T12:40:19;2.92;;;1.13;;
64063;SDS011;50314;50.618;10.642;2023-03-23T12:45:22;1.40;;;0.95;;
64063;SDS011;50314;50.618;10.642;2023-03-23T12:48:22;1.63;;;1.33;;
64063;SDS011;50314;50.618;10.642;2023-03-23T12:51:08;1.13;;;0.88;;
64063;SDS011;50314;50.618;10.642;2023-03-23T12:53:50;1.58;;;1.10;;
64063;SDS011;50314;50.618;10.642;2023-03-23T12:56:35;1.58;;;1.00;;
64063;SDS011;50314;50.618;10.642;2023-03-23T12:59:16;1.20;;;0.88;;
64063;SDS011;50314;50.618;10.642;2023-03-23T13:01:45;1.58;;;0.95;;
64063;SDS011;50314;50.618;10.642;2023-03-23T13:04:37;2.00;;;1.02;;
64063;SDS011;50314;50.618;10.642;2023-03-23T13:07:05;0.95;;;0.70;;
64063;SDS011;50314;50.618;10.642;2023-03-23T13:09:37;1.10;;;0.80;;
64063;SDS011;50314;50.618;10.642;2023-03-23T13:12:18;1.02;;;0.80;;
64063;SDS011;50314;50.618;10.642;2023-03-23T13:14:55;1.52;;;1.00;;
64063;SDS011;50314;50.618;10.642;2023-03-23T13:20:16;1.35;;;0.88;;
64063;SDS011;50314;50.618;10.642;2023-03-23T13:26:17;1.48;;;1.00;;
64063;SDS011;50314;50.618;10.642;2023-03-23T13:31:16;1.70;;;0.88;;
64063;SDS011;50314;50.618;10.642;2023-03-23T13:33:50;1.38;;;0.88;;
64063;SDS011;50314;50.618;10.642;2023-03-23T13:36:28;1.10;;;0.90;;
64063;SDS011;50314;50.618;10.642;2023-03-23T13:38:55;1.05;;;0.95;;
64063;SDS011;50314;50.618;10.642;2023-03-23T13:41:24;1.75;;;0.80;;
64063;SDS011;50314;50.618;10.642;2023-03-23T13:43:51;1.17;;;0.80;;
64063;SDS011;50314;50.618;10.642;2023-03-23T13:46:28;0.93;;;0.70;;
64063;SDS011;50314;50.618;10.642;2023-03-23T13:49:14;0.95;;;0.85;;
64063;SDS011;50314;50.618;10.642;2023-03-23T13:56:59;1.10;;;0.80;;
64063;SDS011;50314;50.618;10.642;2023-03-23T14:01:52;1.63;;;0.88;;
64063;SDS011;50314;50.618;10.642;2023-03-23T14:04:19;3.03;;;0.93;;
64063;SDS011;50314;50.618;10.642;2023-03-23T14:06:47;0.70;;;0.70;;
64063;SDS011;50314;50.618;10.642;2023-03-23T14:11:51;1.25;;;0.77;;
64063;SDS011;50314;50.618;10.642;2023-03-23T14:14:23;0.70;;;0.70;;
64063;SDS011;50314;50.618;10.642;2023-03-23T14:16:52;1.13;;;1.05;;
64063;SDS011;50314;50.618;10.642;2023-03-23T14:19:25;0.93;;;0.93;;
64063;SDS011;50314;50.618;10.642;2023-03-23T14:21:57;1.40;;;1.30;;
64063;SDS011;50314;50.618;10.642;2023-03-23T14:24:31;1.40;;;1.30;;
64063;SDS011;50314;50.618;10.642;2023-03-23T14:27:18;1.55;;;1.45;;
64063;SDS011;50314;50.618;10.642;2023-03-23T14:29:46;1.40;;;1.30;;
64063;SDS011;50314;50.618;10.642;2023-03-23T14:32:22;1.17;;;1.08;;
64063;SDS011;50314;50.618;10.642;2023-03-23T14:34:51;1.27;;;1.17;;
64063;SDS011;50314;50.618;10.642;2023-03-23T14:37:17;1.50;;;1.40;;
64063;SDS011;50314;50.618;10.642;2023-03-23T14:39:50;1.40;;;1.30;;
64063;SDS011;50314;50.618;10.642;2023-03-23T14:42:19;1.67;;;1.10;;
64063;SDS011;50314;50.618;10.642;2023-03-23T14:44:55;1.55;;;1.45;;
64063;SDS011;50314;50.618;10.642;2023-03-23T14:47:25;1.83;;;1.20;;
64063;SDS011;50314;50.618;10.642;2023-03-23T14:49:53;1.10;;;1.10;;
64063;SDS011;50314;50.618;10.642;2023-03-23T14:52:21;1.48;;;1.02;;
64063;SDS011;50314;50.618;10.642;2023-03-23T14:54:48;1.20;;;1.10;;
64063;SDS011;50314;50.618;10.642;2023-03-23T14:57:15;1.17;;;1.08;;
64063;SDS011;50314;50.618;10.642;2023-03-23T14:59:44;1.30;;;1.20;;
64063;SDS011;50314;50.618;10.642;2023-03-23T15:02:17;1.33;;;1.23;;
64063;SDS011;50314;50.618;10.642;2023-03-23T15:04:48;1.58;;;1.48;;
64063;SDS011;50314;50.618;10.642;2023-03-23T15:07:18;1.23;;;1.13;;
64063;SDS011;50314;50.618;10.642;2023-03-23T15:09:46;1.58;;;1.48;;
64063;SDS011;50314;50.618;10.642;2023-03-23T15:12:23;1.30;;;1.20;;
64063;SDS011;50314;50.618;10.642;2023-03-23T15:15:01;1.40;;;1.30;;
64063;SDS011;50314;50.618;10.642;2023-03-23T15:17:30;1.00;;;0.95;;
64063;SDS011;50314;50.618;10.642;2023-03-23T15:20:07;1.42;;;1.33;;
64063;SDS011;50314;50.618;10.642;2023-03-23T15:22:47;1.60;;;1.50;;
64063;SDS011;50314;50.618;10.642;2023-03-23T15:25:28;1.52;;;1.42;;
64063;SDS011;50314;50.618;10.642;2023-03-23T15:27:56;2.30;;;2.10;;
64063;SDS011;50314;50.618;10.642;2023-03-23T15:30:52;2.10;;;1.80;;
64063;SDS011;50314;50.618;10.642;2023-03-23T15:33:18;3.30;;;1.90;;
64063;SDS011;50314;50.618;10.642;2023-03-23T15:35:49;2.20;;;1.70;;
64063;SDS011;50314;50.618;10.642;2023-03-23T15:38:20;1.95;;;1.73;;
64063;SDS011;50314;50.618;10.642;2023-03-23T15:40:49;3.60;;;2.55;;
64063;SDS011;50314;50.618;10.642;2023-03-23T15:43:16;1.52;;;1.42;;
64063;SDS011;50314;50.618;10.642;2023-03-23T15:48:49;2.28;;;2.05;;
64063;SDS011;50314;50.618;10.642;2023-03-23T15:51:19;2.42;;;1.90;;
64063;SDS011;50314;50.618;10.642;2023-03-23T15:53:47;2.33;;;2.13;;
64063;SDS011;50314;50.618;10.642;2023-03-23T15:56:15;2.10;;;1.70;;
64063;SDS011;50314;50.618;10.642;2023-03-23T15:58:42;1.35;;;1.23;;
64063;SDS011;50314;50.618;10.642;2023-03-23T16:01:10;1.30;;;1.20;;
64063;SDS011;50314;50.618;10.642;2023-03-23T16:03:40;1.80;;;1.70;;
64063;SDS011;50314;50.618;10.642;2023-03-23T16:06:10;1.63;;;1.52;;
64063;SDS011;50314;50.618;10.642;2023-03-23T16:08:37;1.50;;;1.40;;
64063;SDS011;50314;50.618;10.642;2023-03-23T16:11:05;1.50;;;1.40;;
64063;SDS011;50314;50.618;10.642;2023-03-23T16:13:33;1.90;;;1.77;;
64063;SDS011;50314;50.618;10.642;2023-03-23T16:15:58;1.85;;;1.60;;
64063;SDS011;50314;50.618;10.642;2023-03-23T16:18:24;1.30;;;1.20;;
64063;SDS011;50314;50.618;10.642;2023-03-23T16:20:50;2.10;;;1.73;;
64063;SDS011;50314;50.618;10.642;2023-03-23T16:23:15;2.22;;;1.50;;
64063;SDS011;50314;50.618;10.642;2023-03-23T16:25:41;2.00;;;1.88;;
64063;SDS011;50314;50.618;10.642;2023-03-23T16:28:11;2.45;;;2.28;;
64063;SDS011;50314;50.618;10.642;2023-03-23T16:30:37;1.88;;;1.77;;
64063;SDS011;50314;50.618;10.642;2023-03-23T16:33:04;1.75;;;1.60;;
64063;SDS011;50314;50.618;10.642;2023-03-23T16:35:29;1.52;;;1.40;;
64063;SDS011;50314;50.618;10.642;2023-03-23T16:37:55;1.80;;;1.70;;